Impacts METAR Board INFO
IDs:

KMCO - Orlando Intl, FL, US

Updated at: 0758 UTC 17 Dec 2017
Potential Impact None Slight Moderate High
Time16/19Z 16/20Z 16/21Z 16/22Z 16/23Z 17/00Z 17/01Z 17/02Z 17/03Z 17/04Z 17/05Z 17/06Z 17/07Z
VIS10 10 10 10 10 10 10 10 10 10 10 10 7
CIG-- 90 250 -- -- -- -- -- -- -- -- -- --
CoverSCTBKNBKNSCTFEWFEWFEWFEWFEWFEWSCTSCTFEW
FltCatVFRVFRVFRVFRVFRVFRVFRVFRVFRVFRVFRVFRVFR
WX--------------------------
WDir50360604060704030102036010360
WSpd5 7 7 8 7 7 6 7 5 5 4 5 3
WGst-- -- -- -- -- -- -- -- -- -- -- -- --
Raw hourly METARs
KMCO 161853Z 05005KT 10SM SCT038 SCT090 SCT250 23/12 A3021 RMK AO2 SLP227 T02330117
KMCO 161953Z 36007KT 10SM SCT041 BKN090 BKN250 22/12 A3020 RMK AO2 SLP224 T02170122 $
KMCO 162053Z 06007KT 10SM FEW090 BKN250 22/13 A3020 RMK AO2 SLP224 T02220128 56008 $
KMCO 162153Z 04008KT 10SM SCT250 21/13 A3020 RMK AO2 SLP226 T02110128 $
KMCO 162253Z 06007KT 10SM FEW250 19/13 A3022 RMK AO2 SLP233 T01890133 $
KMCO 162353Z 07007KT 10SM FEW250 17/13 A3024 RMK AO2 SLP240 T01720133 10233 20172 53016 $
KMCO 170053Z 04006KT 10SM FEW250 17/13 A3026 RMK AO2 SLP244 T01670128 $
KMCO 170153Z 03007KT 10SM FEW250 16/12 A3027 RMK AO2 SLP249 T01560122 $
KMCO 170253Z 01005KT 10SM FEW250 14/12 A3028 RMK AO2 SLP253 T01440117 51013 $
KMCO 170353Z 02005KT 10SM FEW250 14/12 A3028 RMK AO2 SLP251 T01390117 $
KMCO 170453Z 36004KT 10SM SCT250 13/12 A3027 RMK AO2 SLP249 T01280117 402330111 $
KMCO 170553Z 01005KT 10SM SCT250 12/12 A3027 RMK AO2 SLP247 T01220117 10178 20122 58005 $
KMCO 170653Z 36003KT 7SM FEW250 13/12 A3026 RMK AO2 SLP245 T01280117 $